sensor_id;sensor_type;location;lat;lon;timestamp;pressure;altitude;pressure_sealevel;temperature;humidity
37904;BME280;23738;50.422;18.758;2023-02-18T00:00:23;98110.81;;;9.38;90.82
37904;BME280;23738;50.422;18.758;2023-02-18T00:02:51;98109.19;;;9.36;90.61
37904;BME280;23738;50.422;18.758;2023-02-18T00:05:19;98117.26;;;9.36;90.60
37904;BME280;23738;50.422;18.758;2023-02-18T00:07:46;98130.73;;;9.37;90.57
37904;BME280;23738;50.422;18.758;2023-02-18T00:10:14;98137.45;;;9.37;90.57
37904;BME280;23738;50.422;18.758;2023-02-18T00:12:42;98155.75;;;9.34;90.54
37904;BME280;23738;50.422;18.758;2023-02-18T00:15:10;98185.73;;;9.27;90.77
37904;BME280;23738;50.422;18.758;2023-02-18T00:17:38;98210.51;;;9.23;91.61
37904;BME280;23738;50.422;18.758;2023-02-18T00:20:07;98211.66;;;9.16;91.65
37904;BME280;23738;50.422;18.758;2023-02-18T00:22:34;98207.34;;;9.07;91.61
37904;BME280;23738;50.422;18.758;2023-02-18T00:25:02;98210.72;;;9.00;91.55
37904;BME280;23738;50.422;18.758;2023-02-18T00:27:29;98207.54;;;8.98;91.50
37904;BME280;23738;50.422;18.758;2023-02-18T00:29:58;98208.52;;;8.90;90.98
37904;BME280;23738;50.422;18.758;2023-02-18T00:32:26;98210.73;;;8.79;90.77
37904;BME280;23738;50.422;18.758;2023-02-18T00:34:53;98224.83;;;8.76;90.67
37904;BME280;23738;50.422;18.758;2023-02-18T00:37:21;98226.35;;;8.72;90.49
37904;BME280;23738;50.422;18.758;2023-02-18T00:39:48;98235.06;;;8.65;90.40
37904;BME280;23738;50.422;18.758;2023-02-18T00:42:15;98226.65;;;8.60;89.87
37904;BME280;23738;50.422;18.758;2023-02-18T00:44:43;98240.67;;;8.57;90.12
37904;BME280;23738;50.422;18.758;2023-02-18T00:47:11;98236.70;;;8.55;89.77
37904;BME280;23738;50.422;18.758;2023-02-18T00:49:38;98236.81;;;8.54;89.79
37904;BME280;23738;50.422;18.758;2023-02-18T00:52:05;98230.29;;;8.52;89.52
37904;BME280;23738;50.422;18.758;2023-02-18T00:54:33;98226.45;;;8.49;89.50
37904;BME280;23738;50.422;18.758;2023-02-18T00:57:20;98219.72;;;8.47;89.20
37904;BME280;23738;50.422;18.758;2023-02-18T00:59:47;98233.30;;;8.43;89.01
37904;BME280;23738;50.422;18.758;2023-02-18T01:02:15;98228.21;;;8.39;89.01
37904;BME280;23738;50.422;18.758;2023-02-18T01:04:42;98225.09;;;8.36;88.91
37904;BME280;23738;50.422;18.758;2023-02-18T01:07:10;98230.85;;;8.33;88.94
37904;BME280;23738;50.422;18.758;2023-02-18T01:09:37;98234.82;;;8.31;88.73
37904;BME280;23738;50.422;18.758;2023-02-18T01:12:06;98238.65;;;8.28;88.56
37904;BME280;23738;50.422;18.758;2023-02-18T01:17:01;98222.08;;;8.23;86.52
37904;BME280;23738;50.422;18.758;2023-02-18T01:19:28;98233.69;;;8.23;86.74
37904;BME280;23738;50.422;18.758;2023-02-18T01:21:56;98228.42;;;8.20;85.74
37904;BME280;23738;50.422;18.758;2023-02-18T01:24:23;98235.71;;;8.17;84.72
37904;BME280;23738;50.422;18.758;2023-02-18T01:26:51;98239.34;;;8.14;84.65
37904;BME280;23738;50.422;18.758;2023-02-18T01:29:18;98241.04;;;8.12;82.77
37904;BME280;23738;50.422;18.758;2023-02-18T01:31:46;98236.79;;;8.08;81.11
37904;BME280;23738;50.422;18.758;2023-02-18T01:34:13;98249.68;;;8.10;82.01
37904;BME280;23738;50.422;18.758;2023-02-18T01:36:41;98247.05;;;8.07;81.12
37904;BME280;23738;50.422;18.758;2023-02-18T01:39:09;98244.41;;;8.03;79.01
37904;BME280;23738;50.422;18.758;2023-02-18T01:41:36;98257.56;;;8.00;77.48
37904;BME280;23738;50.422;18.758;2023-02-18T01:44:15;98250.09;;;7.96;75.60
37904;BME280;23738;50.422;18.758;2023-02-18T01:46:43;98248.75;;;7.92;75.75
37904;BME280;23738;50.422;18.758;2023-02-18T01:49:13;98247.77;;;7.91;78.02
37904;BME280;23738;50.422;18.758;2023-02-18T01:51:45;98246.66;;;7.85;75.02
37904;BME280;23738;50.422;18.758;2023-02-18T01:54:17;98250.14;;;7.80;75.12
37904;BME280;23738;50.422;18.758;2023-02-18T01:56:50;98243.52;;;7.77;76.85
37904;BME280;23738;50.422;18.758;2023-02-18T01:59:22;98245.41;;;7.71;76.08
37904;BME280;23738;50.422;18.758;2023-02-18T02:01:50;98237.11;;;7.71;74.65
37904;BME280;23738;50.422;18.758;2023-02-18T02:04:18;98243.11;;;7.68;72.67
37904;BME280;23738;50.422;18.758;2023-02-18T02:06:45;98236.74;;;7.67;72.48
37904;BME280;23738;50.422;18.758;2023-02-18T02:09:15;98236.82;;;7.64;71.19
37904;BME280;23738;50.422;18.758;2023-02-18T02:12:16;98237.26;;;7.63;71.50
37904;BME280;23738;50.422;18.758;2023-02-18T02:14:58;98239.54;;;7.59;69.10
37904;BME280;23738;50.422;18.758;2023-02-18T02:17:38;98239.27;;;7.60;69.68
37904;BME280;23738;50.422;18.758;2023-02-18T02:20:32;98237.23;;;7.56;68.79
37904;BME280;23738;50.422;18.758;2023-02-18T02:23:33;98239.45;;;7.54;68.32
37904;BME280;23738;50.422;18.758;2023-02-18T02:26:49;98238.09;;;7.51;71.35
37904;BME280;23738;50.422;18.758;2023-02-18T02:29:42;98244.46;;;7.46;69.94
37904;BME280;23738;50.422;18.758;2023-02-18T02:32:31;98247.75;;;7.44;69.44
37904;BME280;23738;50.422;18.758;2023-02-18T02:35:04;98246.09;;;7.42;69.47
37904;BME280;23738;50.422;18.758;2023-02-18T02:37:37;98246.15;;;7.40;69.48
37904;BME280;23738;50.422;18.758;2023-02-18T02:40:18;98252.70;;;7.36;69.37
37904;BME280;23738;50.422;18.758;2023-02-18T02:42:59;98258.67;;;7.36;71.27
37904;BME280;23738;50.422;18.758;2023-02-18T02:45:40;98264.23;;;7.32;70.86
37904;BME280;23738;50.422;18.758;2023-02-18T02:48:17;98267.73;;;7.29;71.66
37904;BME280;23738;50.422;18.758;2023-02-18T02:50:51;98270.94;;;7.26;72.13
37904;BME280;23738;50.422;18.758;2023-02-18T02:53:23;98272.64;;;7.20;72.80
37904;BME280;23738;50.422;18.758;2023-02-18T02:55:52;98276.57;;;7.18;73.60
37904;BME280;23738;50.422;18.758;2023-02-18T02:58:22;98279.63;;;7.14;73.44
37904;BME280;23738;50.422;18.758;2023-02-18T03:01:02;98286.23;;;7.11;73.80
37904;BME280;23738;50.422;18.758;2023-02-18T03:03:47;98285.55;;;7.02;73.39
37904;BME280;23738;50.422;18.758;2023-02-18T03:06:32;98300.23;;;7.00;69.88
37904;BME280;23738;50.422;18.758;2023-02-18T03:09:12;98296.56;;;7.04;71.16
37904;BME280;23738;50.422;18.758;2023-02-18T03:11:47;98298.45;;;7.04;71.20
37904;BME280;23738;50.422;18.758;2023-02-18T03:14:24;98301.23;;;7.03;70.03
37904;BME280;23738;50.422;18.758;2023-02-18T03:16:58;98305.80;;;7.00;69.50
37904;BME280;23738;50.422;18.758;2023-02-18T03:19:32;98303.67;;;6.97;68.95
37904;BME280;23738;50.422;18.758;2023-02-18T03:22:04;98316.88;;;6.98;69.96
37904;BME280;23738;50.422;18.758;2023-02-18T03:24:34;98318.57;;;6.94;71.30
37904;BME280;23738;50.422;18.758;2023-02-18T03:27:08;98317.42;;;6.87;70.13
37904;BME280;23738;50.422;18.758;2023-02-18T03:29:39;98322.78;;;6.85;69.56
37904;BME280;23738;50.422;18.758;2023-02-18T03:32:09;98321.17;;;6.81;70.77
37904;BME280;23738;50.422;18.758;2023-02-18T03:34:43;98321.42;;;6.76;71.25
37904;BME280;23738;50.422;18.758;2023-02-18T03:37:12;98323.69;;;6.71;70.63
37904;BME280;23738;50.422;18.758;2023-02-18T03:39:43;98324.70;;;6.66;71.44
37904;BME280;23738;50.422;18.758;2023-02-18T03:42:11;98320.88;;;6.55;71.59
37904;BME280;23738;50.422;18.758;2023-02-18T03:44:39;98331.81;;;6.54;71.61
37904;BME280;23738;50.422;18.758;2023-02-18T03:47:06;98333.71;;;6.44;71.37
37904;BME280;23738;50.422;18.758;2023-02-18T03:49:34;98334.25;;;6.41;71.47
37904;BME280;23738;50.422;18.758;2023-02-18T03:52:01;98332.48;;;6.35;70.89
37904;BME280;23738;50.422;18.758;2023-02-18T03:54:29;98341.98;;;6.36;71.01
37904;BME280;23738;50.422;18.758;2023-02-18T03:56:56;98341.36;;;6.36;71.36
37904;BME280;23738;50.422;18.758;2023-02-18T03:59:24;98340.41;;;6.30;71.30
37904;BME280;23738;50.422;18.758;2023-02-18T04:01:51;98346.85;;;6.29;70.94
37904;BME280;23738;50.422;18.758;2023-02-18T04:04:19;98342.64;;;6.26;71.01
37904;BME280;23738;50.422;18.758;2023-02-18T04:06:46;98348.51;;;6.24;71.05
37904;BME280;23738;50.422;18.758;2023-02-18T04:09:14;98344.38;;;6.20;71.43
37904;BME280;23738;50.422;18.758;2023-02-18T04:11:41;98349.10;;;6.19;71.44
37904;BME280;23738;50.422;18.758;2023-02-18T04:14:09;98349.27;;;6.14;71.10
37904;BME280;23738;50.422;18.758;2023-02-18T04:16:39;98355.83;;;6.08;71.22
37904;BME280;23738;50.422;18.758;2023-02-18T04:19:07;98354.20;;;6.05;70.96
37904;BME280;23738;50.422;18.758;2023-02-18T04:21:34;98358.14;;;6.01;69.66
37904;BME280;23738;50.422;18.758;2023-02-18T04:24:02;98358.27;;;6.01;70.73
37904;BME280;23738;50.422;18.758;2023-02-18T04:26:30;98358.83;;;6.02;66.79
37904;BME280;23738;50.422;18.758;2023-02-18T04:28:57;98357.61;;;6.04;68.29
37904;BME280;23738;50.422;18.758;2023-02-18T04:31:24;98364.12;;;6.08;66.39
37904;BME280;23738;50.422;18.758;2023-02-18T04:33:52;98369.20;;;6.09;68.70
37904;BME280;23738;50.422;18.758;2023-02-18T04:36:19;98370.00;;;6.09;67.85
37904;BME280;23738;50.422;18.758;2023-02-18T04:38:46;98373.00;;;6.08;66.06
37904;BME280;23738;50.422;18.758;2023-02-18T04:41:14;98372.09;;;6.07;66.23
37904;BME280;23738;50.422;18.758;2023-02-18T04:43:41;98375.79;;;6.08;66.49
37904;BME280;23738;50.422;18.758;2023-02-18T04:46:08;98381.55;;;6.06;66.77
37904;BME280;23738;50.422;18.758;2023-02-18T04:48:36;98387.57;;;6.03;65.95
37904;BME280;23738;50.422;18.758;2023-02-18T04:51:04;98380.23;;;5.97;65.49
37904;BME280;23738;50.422;18.758;2023-02-18T04:53:31;98386.51;;;6.00;64.92
37904;BME280;23738;50.422;18.758;2023-02-18T04:55:59;98382.53;;;6.00;64.16
37904;BME280;23738;50.422;18.758;2023-02-18T04:58:27;98385.52;;;6.00;65.58
37904;BME280;23738;50.422;18.758;2023-02-18T05:00:58;98382.13;;;5.99;66.37
37904;BME280;23738;50.422;18.758;2023-02-18T05:03:28;98387.75;;;5.96;65.16
37904;BME280;23738;50.422;18.758;2023-02-18T05:05:55;98388.73;;;5.93;65.55
37904;BME280;23738;50.422;18.758;2023-02-18T05:08:23;98387.77;;;5.88;64.23
37904;BME280;23738;50.422;18.758;2023-02-18T05:10:50;98381.79;;;5.85;64.96
37904;BME280;23738;50.422;18.758;2023-02-18T05:13:18;98383.06;;;5.84;64.83
37904;BME280;23738;50.422;18.758;2023-02-18T05:15:45;98388.30;;;5.84;64.97
37904;BME280;23738;50.422;18.758;2023-02-18T05:18:13;98389.65;;;5.83;64.85
37904;BME280;23738;50.422;18.758;2023-02-18T05:20:40;98390.05;;;5.83;63.49
37904;BME280;23738;50.422;18.758;2023-02-18T05:23:07;98390.66;;;5.82;64.21
37904;BME280;23738;50.422;18.758;2023-02-18T05:25:35;98385.27;;;5.80;64.35
37904;BME280;23738;50.422;18.758;2023-02-18T05:28:02;98389.08;;;5.82;64.77
37904;BME280;23738;50.422;18.758;2023-02-18T05:30:30;98393.98;;;5.79;63.83
37904;BME280;23738;50.422;18.758;2023-02-18T05:32:57;98392.50;;;5.78;65.29
37904;BME280;23738;50.422;18.758;2023-02-18T05:35:25;98389.43;;;5.74;64.05
37904;BME280;23738;50.422;18.758;2023-02-18T05:37:52;98392.88;;;5.75;64.31
37904;BME280;23738;50.422;18.758;2023-02-18T05:40:20;98389.11;;;5.73;64.16
37904;BME280;23738;50.422;18.758;2023-02-18T05:42:47;98388.78;;;5.71;63.38
37904;BME280;23738;50.422;18.758;2023-02-18T05:45:14;98388.09;;;5.69;64.56
37904;BME280;23738;50.422;18.758;2023-02-18T05:47:42;98383.86;;;5.68;64.18
37904;BME280;23738;50.422;18.758;2023-02-18T05:50:10;98381.35;;;5.67;63.63
37904;BME280;23738;50.422;18.758;2023-02-18T05:52:37;98378.71;;;5.66;63.98
37904;BME280;23738;50.422;18.758;2023-02-18T05:55:06;98387.37;;;5.69;62.55
37904;BME280;23738;50.422;18.758;2023-02-18T05:57:33;98381.77;;;5.69;63.09
37904;BME280;23738;50.422;18.758;2023-02-18T06:00:01;98392.50;;;5.78;60.19
37904;BME280;23738;50.422;18.758;2023-02-18T06:02:28;98393.64;;;5.85;61.67
37904;BME280;23738;50.422;18.758;2023-02-18T06:04:55;98388.27;;;5.88;62.27
37904;BME280;23738;50.422;18.758;2023-02-18T06:07:23;98402.73;;;5.93;61.26
37904;BME280;23738;50.422;18.758;2023-02-18T06:09:50;98401.58;;;5.95;61.85
37904;BME280;23738;50.422;18.758;2023-02-18T06:12:18;98405.02;;;5.97;61.66
37904;BME280;23738;50.422;18.758;2023-02-18T06:14:46;98400.05;;;5.98;62.17
37904;BME280;23738;50.422;18.758;2023-02-18T06:17:14;98404.34;;;6.00;61.97
37904;BME280;23738;50.422;18.758;2023-02-18T06:19:41;98406.95;;;6.02;61.07
37904;BME280;23738;50.422;18.758;2023-02-18T06:22:09;98411.23;;;6.03;61.20
37904;BME280;23738;50.422;18.758;2023-02-18T06:24:37;98418.35;;;6.05;60.92
37904;BME280;23738;50.422;18.758;2023-02-18T06:27:04;98413.84;;;6.06;60.43
37904;BME280;23738;50.422;18.758;2023-02-18T06:29:32;98413.81;;;6.12;62.25
37904;BME280;23738;50.422;18.758;2023-02-18T06:32:01;98406.54;;;6.12;59.42
37904;BME280;23738;50.422;18.758;2023-02-18T06:34:29;98401.19;;;6.14;60.33
37904;BME280;23738;50.422;18.758;2023-02-18T06:36:56;98408.45;;;6.18;59.76
37904;BME280;23738;50.422;18.758;2023-02-18T06:39:23;98412.11;;;6.21;60.11
37904;BME280;23738;50.422;18.758;2023-02-18T06:41:51;98409.90;;;6.21;60.33
37904;BME280;23738;50.422;18.758;2023-02-18T06:44:18;98416.59;;;6.25;59.71
37904;BME280;23738;50.422;18.758;2023-02-18T06:46:45;98422.38;;;6.27;59.16
37904;BME280;23738;50.422;18.758;2023-02-18T06:49:13;98419.95;;;6.29;59.49
37904;BME280;23738;50.422;18.758;2023-02-18T06:51:40;98422.91;;;6.32;57.56
37904;BME280;23738;50.422;18.758;2023-02-18T06:54:08;98427.38;;;6.37;58.64
37904;BME280;23738;50.422;18.758;2023-02-18T06:56:35;98425.61;;;6.41;58.02
37904;BME280;23738;50.422;18.758;2023-02-18T06:59:02;98428.65;;;6.46;58.06
37904;BME280;23738;50.422;18.758;2023-02-18T07:01:30;98422.63;;;6.48;57.28
37904;BME280;23738;50.422;18.758;2023-02-18T07:03:57;98424.86;;;6.53;57.36
37904;BME280;23738;50.422;18.758;2023-02-18T07:06:25;98422.04;;;6.53;57.49
37904;BME280;23738;50.422;18.758;2023-02-18T07:08:52;98420.99;;;6.51;57.87
37904;BME280;23738;50.422;18.758;2023-02-18T07:11:20;98416.02;;;6.52;57.68
37904;BME280;23738;50.422;18.758;2023-02-18T07:13:47;98421.63;;;6.54;57.88
37904;BME280;23738;50.422;18.758;2023-02-18T07:16:15;98424.60;;;6.55;57.76
37904;BME280;23738;50.422;18.758;2023-02-18T07:18:42;98425.34;;;6.58;57.57
37904;BME280;23738;50.422;18.758;2023-02-18T07:21:10;98421.35;;;6.56;58.55
37904;BME280;23738;50.422;18.758;2023-02-18T07:23:37;98422.27;;;6.56;57.74
37904;BME280;23738;50.422;18.758;2023-02-18T07:26:06;98421.66;;;6.53;57.83
37904;BME280;23738;50.422;18.758;2023-02-18T07:28:35;98421.48;;;6.52;57.76
37904;BME280;23738;50.422;18.758;2023-02-18T07:31:04;98432.39;;;6.53;56.90
37904;BME280;23738;50.422;18.758;2023-02-18T07:33:32;98434.90;;;6.56;56.18
37904;BME280;23738;50.422;18.758;2023-02-18T07:36:00;98432.14;;;6.57;56.81
37904;BME280;23738;50.422;18.758;2023-02-18T07:38:28;98428.92;;;6.58;57.19
37904;BME280;23738;50.422;18.758;2023-02-18T07:40:57;98432.77;;;6.61;57.17
37904;BME280;23738;50.422;18.758;2023-02-18T07:43:25;98433.56;;;6.61;58.18
37904;BME280;23738;50.422;18.758;2023-02-18T07:45:52;98438.84;;;6.61;56.43
37904;BME280;23738;50.422;18.758;2023-02-18T07:48:21;98439.55;;;6.62;56.40
37904;BME280;23738;50.422;18.758;2023-02-18T07:50:48;98440.66;;;6.65;57.20
37904;BME280;23738;50.422;18.758;2023-02-18T07:53:16;98440.92;;;6.66;57.91
37904;BME280;23738;50.422;18.758;2023-02-18T07:55:44;98438.70;;;6.65;57.51
37904;BME280;23738;50.422;18.758;2023-02-18T07:58:19;98446.92;;;6.65;56.95
37904;BME280;23738;50.422;18.758;2023-02-18T08:00:49;98444.73;;;6.67;57.82
37904;BME280;23738;50.422;18.758;2023-02-18T08:03:20;98441.20;;;6.66;57.66
37904;BME280;23738;50.422;18.758;2023-02-18T08:05:49;98445.23;;;6.72;56.74
37904;BME280;23738;50.422;18.758;2023-02-18T08:08:21;98442.77;;;6.74;56.50
37904;BME280;23738;50.422;18.758;2023-02-18T08:10:49;98442.81;;;6.78;58.26
37904;BME280;23738;50.422;18.758;2023-02-18T08:13:17;98443.45;;;6.78;57.96
37904;BME280;23738;50.422;18.758;2023-02-18T08:15:45;98444.90;;;6.78;57.57
37904;BME280;23738;50.422;18.758;2023-02-18T08:18:15;98437.61;;;6.76;56.79
37904;BME280;23738;50.422;18.758;2023-02-18T08:20:43;98442.06;;;6.77;57.43
37904;BME280;23738;50.422;18.758;2023-02-18T08:23:11;98445.92;;;6.80;58.30
37904;BME280;23738;50.422;18.758;2023-02-18T08:25:38;98446.02;;;6.80;57.45
37904;BME280;23738;50.422;18.758;2023-02-18T08:28:08;98427.19;;;6.75;57.90
37904;BME280;23738;50.422;18.758;2023-02-18T08:30:36;98439.18;;;6.82;58.14
37904;BME280;23738;50.422;18.758;2023-02-18T08:33:03;98440.41;;;6.85;58.28
37904;BME280;23738;50.422;18.758;2023-02-18T08:35:31;98442.65;;;6.85;58.02
37904;BME280;23738;50.422;18.758;2023-02-18T08:38:00;98447.33;;;6.87;57.26
37904;BME280;23738;50.422;18.758;2023-02-18T08:40:27;98454.06;;;6.93;57.59
37904;BME280;23738;50.422;18.758;2023-02-18T08:42:54;98443.23;;;6.97;57.79
37904;BME280;23738;50.422;18.758;2023-02-18T08:45:22;98444.23;;;7.00;57.63
37904;BME280;23738;50.422;18.758;2023-02-18T08:47:52;98447.46;;;7.01;57.82
37904;BME280;23738;50.422;18.758;2023-02-18T08:50:19;98448.81;;;7.06;57.70
37904;BME280;23738;50.422;18.758;2023-02-18T08:52:51;98450.70;;;7.08;57.13
37904;BME280;23738;50.422;18.758;2023-02-18T08:55:19;98446.81;;;7.11;57.68
37904;BME280;23738;50.422;18.758;2023-02-18T08:57:47;98447.86;;;7.15;58.21
37904;BME280;23738;50.422;18.758;2023-02-18T09:00:16;98444.59;;;7.19;58.51
37904;BME280;23738;50.422;18.758;2023-02-18T09:02:44;98438.98;;;7.21;58.68
37904;BME280;23738;50.422;18.758;2023-02-18T09:05:13;98440.02;;;7.25;57.99
37904;BME280;23738;50.422;18.758;2023-02-18T09:07:41;98440.91;;;7.27;58.56
37904;BME280;23738;50.422;18.758;2023-02-18T09:10:09;98441.23;;;7.32;59.12
37904;BME280;23738;50.422;18.758;2023-02-18T09:12:37;98436.48;;;7.33;59.08
37904;BME280;23738;50.422;18.758;2023-02-18T09:15:05;98435.20;;;7.35;58.35
37904;BME280;23738;50.422;18.758;2023-02-18T09:17:33;98436.29;;;7.35;59.07
37904;BME280;23738;50.422;18.758;2023-02-18T09:20:01;98442.75;;;7.39;58.87
37904;BME280;23738;50.422;18.758;2023-02-18T09:22:29;98446.55;;;7.43;59.33
37904;BME280;23738;50.422;18.758;2023-02-18T09:24:58;98447.15;;;7.45;59.05
37904;BME280;23738;50.422;18.758;2023-02-18T09:27:26;98440.77;;;7.46;58.54
37904;BME280;23738;50.422;18.758;2023-02-18T09:29:53;98439.13;;;7.49;58.87
37904;BME280;23738;50.422;18.758;2023-02-18T09:32:22;98431.95;;;7.49;58.97
37904;BME280;23738;50.422;18.758;2023-02-18T09:34:49;98429.63;;;7.55;59.63
37904;BME280;23738;50.422;18.758;2023-02-18T09:37:16;98427.36;;;7.56;59.17
37904;BME280;23738;50.422;18.758;2023-02-18T09:39:44;98424.50;;;7.63;59.52
37904;BME280;23738;50.422;18.758;2023-02-18T09:42:15;98423.12;;;7.65;59.38
37904;BME280;23738;50.422;18.758;2023-02-18T09:44:46;98416.23;;;7.67;58.90
37904;BME280;23738;50.422;18.758;2023-02-18T09:47:29;98417.38;;;7.69;59.09
37904;BME280;23738;50.422;18.758;2023-02-18T09:50:03;98420.84;;;7.70;59.89
37904;BME280;23738;50.422;18.758;2023-02-18T09:52:33;98424.13;;;7.73;59.57
37904;BME280;23738;50.422;18.758;2023-02-18T09:55:17;98426.25;;;7.73;58.84
37904;BME280;23738;50.422;18.758;2023-02-18T09:57:46;98425.00;;;7.74;58.84
37904;BME280;23738;50.422;18.758;2023-02-18T10:00:19;98425.89;;;7.74;59.54
37904;BME280;23738;50.422;18.758;2023-02-18T10:02:54;98428.45;;;7.71;59.23
37904;BME280;23738;50.422;18.758;2023-02-18T10:05:22;98432.92;;;7.70;58.72
37904;BME280;23738;50.422;18.758;2023-02-18T10:07:53;98431.71;;;7.64;58.47
37904;BME280;23738;50.422;18.758;2023-02-18T10:10:29;98430.89;;;7.59;59.11
37904;BME280;23738;50.422;18.758;2023-02-18T10:13:00;98439.77;;;7.52;59.75
37904;BME280;23738;50.422;18.758;2023-02-18T10:15:29;98438.98;;;7.47;60.49
37904;BME280;23738;50.422;18.758;2023-02-18T10:17:58;98432.33;;;7.37;60.55
37904;BME280;23738;50.422;18.758;2023-02-18T10:20:29;98437.68;;;7.29;61.31
37904;BME280;23738;50.422;18.758;2023-02-18T10:22:59;98432.00;;;7.25;61.86
37904;BME280;23738;50.422;18.758;2023-02-18T10:25:50;98435.05;;;7.19;62.64
37904;BME280;23738;50.422;18.758;2023-02-18T10:28:22;98428.64;;;7.11;62.54
37904;BME280;23738;50.422;18.758;2023-02-18T10:30:56;98417.10;;;7.01;62.28
37904;BME280;23738;50.422;18.758;2023-02-18T10:33:35;98420.67;;;7.06;62.30
37904;BME280;23738;50.422;18.758;2023-02-18T10:36:11;98416.95;;;7.07;62.22
37904;BME280;23738;50.422;18.758;2023-02-18T10:38:55;98407.63;;;7.09;62.58
37904;BME280;23738;50.422;18.758;2023-02-18T10:41:33;98403.98;;;7.13;62.35
37904;BME280;23738;50.422;18.758;2023-02-18T10:44:09;98406.65;;;7.16;62.79
37904;BME280;23738;50.422;18.758;2023-02-18T10:46:48;98405.63;;;7.17;62.69
37904;BME280;23738;50.422;18.758;2023-02-18T10:49:35;98400.41;;;7.17;62.87
37904;BME280;23738;50.422;18.758;2023-02-18T10:52:08;98392.48;;;7.11;62.99
37904;BME280;23738;50.422;18.758;2023-02-18T10:54:59;98395.46;;;7.08;63.10
37904;BME280;23738;50.422;18.758;2023-02-18T10:57:27;98398.77;;;7.07;63.41
37904;BME280;23738;50.422;18.758;2023-02-18T10:59:57;98390.89;;;7.00;63.46
37904;BME280;23738;50.422;18.758;2023-02-18T11:02:27;98387.02;;;6.99;63.30
37904;BME280;23738;50.422;18.758;2023-02-18T11:04:58;98384.52;;;6.96;63.28
37904;BME280;23738;50.422;18.758;2023-02-18T11:07:31;98379.41;;;6.95;63.84
37904;BME280;23738;50.422;18.758;2023-02-18T11:10:01;98378.55;;;6.93;63.71
37904;BME280;23738;50.422;18.758;2023-02-18T11:12:43;98369.46;;;6.94;63.82
37904;BME280;23738;50.422;18.758;2023-02-18T11:15:19;98359.23;;;6.95;63.95
37904;BME280;23738;50.422;18.758;2023-02-18T11:17:48;98363.32;;;6.96;63.98
37904;BME280;23738;50.422;18.758;2023-02-18T11:20:31;98356.99;;;6.93;64.24
37904;BME280;23738;50.422;18.758;2023-02-18T11:23:18;98355.27;;;6.91;63.89
37904;BME280;23738;50.422;18.758;2023-02-18T11:25:58;98359.13;;;6.93;64.30
37904;BME280;23738;50.422;18.758;2023-02-18T11:28:32;98352.86;;;6.93;64.37
37904;BME280;23738;50.422;18.758;2023-02-18T11:31:01;98349.95;;;6.92;64.38
37904;BME280;23738;50.422;18.758;2023-02-18T11:33:34;98342.32;;;6.90;64.98
37904;BME280;23738;50.422;18.758;2023-02-18T11:36:08;98334.56;;;6.86;65.52
37904;BME280;23738;50.422;18.758;2023-02-18T11:38:45;98337.27;;;6.88;65.80
37904;BME280;23738;50.422;18.758;2023-02-18T11:41:15;98326.86;;;6.86;66.07
37904;BME280;23738;50.422;18.758;2023-02-18T11:43:46;98329.65;;;6.86;66.00
37904;BME280;23738;50.422;18.758;2023-02-18T11:46:16;98326.39;;;6.84;66.05
37904;BME280;23738;50.422;18.758;2023-02-18T11:48:44;98317.27;;;6.79;66.87
37904;BME280;23738;50.422;18.758;2023-02-18T11:51:17;98312.25;;;6.75;67.54
37904;BME280;23738;50.422;18.758;2023-02-18T11:53:57;98307.17;;;6.67;67.48
37904;BME280;23738;50.422;18.758;2023-02-18T11:56:27;98303.77;;;6.62;67.07
37904;BME280;23738;50.422;18.758;2023-02-18T11:58:55;98301.02;;;6.60;68.01
37904;BME280;23738;50.422;18.758;2023-02-18T12:01:31;98294.42;;;6.55;67.78
37904;BME280;23738;50.422;18.758;2023-02-18T12:04:07;98291.95;;;6.53;67.79
37904;BME280;23738;50.422;18.758;2023-02-18T12:06:40;98294.95;;;6.49;67.59
37904;BME280;23738;50.422;18.758;2023-02-18T12:09:19;98287.08;;;6.49;67.84
37904;BME280;23738;50.422;18.758;2023-02-18T12:11:51;98283.75;;;6.51;68.03
37904;BME280;23738;50.422;18.758;2023-02-18T12:14:20;98277.90;;;6.48;68.15
37904;BME280;23738;50.422;18.758;2023-02-18T12:17:10;98278.92;;;6.52;68.06
37904;BME280;23738;50.422;18.758;2023-02-18T12:19:54;98268.64;;;6.52;67.92
37904;BME280;23738;50.422;18.758;2023-02-18T12:22:32;98266.14;;;6.56;68.30
37904;BME280;23738;50.422;18.758;2023-02-18T12:25:19;98252.81;;;6.57;69.06
37904;BME280;23738;50.422;18.758;2023-02-18T12:27:57;98247.59;;;6.55;68.67
37904;BME280;23738;50.422;18.758;2023-02-18T12:30:57;98244.98;;;6.53;68.91
37904;BME280;23738;50.422;18.758;2023-02-18T12:33:33;98240.84;;;6.54;69.18
37904;BME280;23738;50.422;18.758;2023-02-18T12:36:11;98234.02;;;6.54;69.08
37904;BME280;23738;50.422;18.758;2023-02-18T12:38:54;98221.88;;;6.58;69.32
37904;BME280;23738;50.422;18.758;2023-02-18T12:41:33;98201.10;;;6.63;69.19
37904;BME280;23738;50.422;18.758;2023-02-18T12:44:13;98185.20;;;6.66;69.38
37904;BME280;23738;50.422;18.758;2023-02-18T12:49:58;98170.63;;;6.82;70.33
37904;BME280;23738;50.422;18.758;2023-02-18T12:52:36;98166.23;;;6.81;70.24
37904;BME280;23738;50.422;18.758;2023-02-18T12:55:34;98160.70;;;6.83;70.55
37904;BME280;23738;50.422;18.758;2023-02-18T12:58:15;98154.54;;;6.89;70.72
37904;BME280;23738;50.422;18.758;2023-02-18T13:07:21;98126.20;;;6.94;70.44
37904;BME280;23738;50.422;18.758;2023-02-18T13:10:19;98117.13;;;7.01;70.47
37904;BME280;23738;50.422;18.758;2023-02-18T13:12:56;98113.60;;;7.11;70.76
37904;BME280;23738;50.422;18.758;2023-02-18T13:15:35;98117.04;;;7.20;71.15
37904;BME280;23738;50.422;18.758;2023-02-18T13:18:25;98104.73;;;7.21;71.25
37904;BME280;23738;50.422;18.758;2023-02-18T13:20:56;98093.48;;;7.19;71.08
37904;BME280;23738;50.422;18.758;2023-02-18T13:23:28;98086.71;;;7.20;71.32
37904;BME280;23738;50.422;18.758;2023-02-18T13:26:14;98077.16;;;7.22;71.52
37904;BME280;23738;50.422;18.758;2023-02-18T13:28:47;98075.50;;;7.21;71.40
37904;BME280;23738;50.422;18.758;2023-02-18T13:31:31;98071.42;;;7.22;71.52
37904;BME280;23738;50.422;18.758;2023-02-18T13:34:09;98071.10;;;7.22;71.72